sensor_id;sensor_type;location;lat;lon;timestamp;temperature;humidity
13488;DHT22;6816;48.506;9.050;2022-08-19T00:02:03;22.90;95.00
13488;DHT22;6816;48.506;9.050;2022-08-19T00:05:04;22.80;95.10
13488;DHT22;6816;48.506;9.050;2022-08-19T00:08:05;22.80;95.20
13488;DHT22;6816;48.506;9.050;2022-08-19T00:11:07;22.80;95.30
13488;DHT22;6816;48.506;9.050;2022-08-19T00:14:09;22.80;95.40
13488;DHT22;6816;48.506;9.050;2022-08-19T00:17:10;22.80;95.60
13488;DHT22;6816;48.506;9.050;2022-08-19T00:20:13;22.70;95.50
13488;DHT22;6816;48.506;9.050;2022-08-19T00:23:17;22.70;95.90
13488;DHT22;6816;48.506;9.050;2022-08-19T00:26:17;22.70;95.70
13488;DHT22;6816;48.506;9.050;2022-08-19T00:29:19;22.70;95.70
13488;DHT22;6816;48.506;9.050;2022-08-19T00:32:21;22.60;95.60
13488;DHT22;6816;48.506;9.050;2022-08-19T00:35:25;22.60;95.70
13488;DHT22;6816;48.506;9.050;2022-08-19T00:41:31;22.50;95.80
13488;DHT22;6816;48.506;9.050;2022-08-19T00:44:32;22.50;95.90
13488;DHT22;6816;48.506;9.050;2022-08-19T00:47:33;22.40;95.90
13488;DHT22;6816;48.506;9.050;2022-08-19T00:50:34;22.40;96.00
13488;DHT22;6816;48.506;9.050;2022-08-19T00:53:35;22.30;96.10
13488;DHT22;6816;48.506;9.050;2022-08-19T00:56:36;22.30;96.20
13488;DHT22;6816;48.506;9.050;2022-08-19T00:59:38;22.20;96.30
13488;DHT22;6816;48.506;9.050;2022-08-19T01:02:41;22.20;96.40
13488;DHT22;6816;48.506;9.050;2022-08-19T01:05:43;22.10;96.50
13488;DHT22;6816;48.506;9.050;2022-08-19T01:08:44;22.10;96.60
13488;DHT22;6816;48.506;9.050;2022-08-19T01:11:45;22.00;96.80
13488;DHT22;6816;48.506;9.050;2022-08-19T01:14:46;22.10;96.90
13488;DHT22;6816;48.506;9.050;2022-08-19T01:17:48;22.00;97.00
13488;DHT22;6816;48.506;9.050;2022-08-19T01:20:50;22.00;97.20
13488;DHT22;6816;48.506;9.050;2022-08-19T01:23:52;21.90;97.30
13488;DHT22;6816;48.506;9.050;2022-08-19T01:26:52;21.90;97.50
13488;DHT22;6816;48.506;9.050;2022-08-19T01:29:53;21.90;97.70
13488;DHT22;6816;48.506;9.050;2022-08-19T01:32:54;21.80;97.90
13488;DHT22;6816;48.506;9.050;2022-08-19T01:36:05;21.80;98.00
13488;DHT22;6816;48.506;9.050;2022-08-19T01:39:09;21.70;98.00
13488;DHT22;6816;48.506;9.050;2022-08-19T01:42:10;21.70;98.20
13488;DHT22;6816;48.506;9.050;2022-08-19T01:45:12;21.70;98.40
13488;DHT22;6816;48.506;9.050;2022-08-19T01:48:13;21.60;98.50
13488;DHT22;6816;48.506;9.050;2022-08-19T01:51:14;21.60;98.60
13488;DHT22;6816;48.506;9.050;2022-08-19T01:54:17;21.60;98.70
13488;DHT22;6816;48.506;9.050;2022-08-19T01:57:18;21.50;98.80
13488;DHT22;6816;48.506;9.050;2022-08-19T02:00:22;21.50;98.90
13488;DHT22;6816;48.506;9.050;2022-08-19T02:03:23;21.50;99.00
13488;DHT22;6816;48.506;9.050;2022-08-19T02:06:24;21.40;99.10
13488;DHT22;6816;48.506;9.050;2022-08-19T02:09:25;21.40;99.10
13488;DHT22;6816;48.506;9.050;2022-08-19T02:12:25;21.40;99.20
13488;DHT22;6816;48.506;9.050;2022-08-19T02:15:29;21.40;99.30
13488;DHT22;6816;48.506;9.050;2022-08-19T02:18:30;21.30;99.20
13488;DHT22;6816;48.506;9.050;2022-08-19T02:21:31;21.30;99.40
13488;DHT22;6816;48.506;9.050;2022-08-19T02:24:32;21.30;99.50
13488;DHT22;6816;48.506;9.050;2022-08-19T02:27:33;21.30;99.60
13488;DHT22;6816;48.506;9.050;2022-08-19T02:30:34;21.20;99.60
13488;DHT22;6816;48.506;9.050;2022-08-19T02:33:34;21.20;99.70
13488;DHT22;6816;48.506;9.050;2022-08-19T02:36:35;21.30;99.80
13488;DHT22;6816;48.506;9.050;2022-08-19T02:39:36;21.20;99.70
13488;DHT22;6816;48.506;9.050;2022-08-19T02:42:36;21.20;99.80
13488;DHT22;6816;48.506;9.050;2022-08-19T02:45:38;21.20;99.80
13488;DHT22;6816;48.506;9.050;2022-08-19T02:48:40;21.20;99.90
13488;DHT22;6816;48.506;9.050;2022-08-19T02:51:43;21.10;99.80
13488;DHT22;6816;48.506;9.050;2022-08-19T02:54:44;21.10;99.90
13488;DHT22;6816;48.506;9.050;2022-08-19T02:57:46;21.10;99.90
13488;DHT22;6816;48.506;9.050;2022-08-19T03:00:50;21.10;99.90
13488;DHT22;6816;48.506;9.050;2022-08-19T03:03:51;21.10;99.90
13488;DHT22;6816;48.506;9.050;2022-08-19T03:06:52;21.00;99.90
13488;DHT22;6816;48.506;9.050;2022-08-19T03:09:53;21.00;99.90
13488;DHT22;6816;48.506;9.050;2022-08-19T03:12:53;21.00;99.90
13488;DHT22;6816;48.506;9.050;2022-08-19T03:15:54;21.00;99.90
13488;DHT22;6816;48.506;9.050;2022-08-19T03:18:56;21.00;99.90
13488;DHT22;6816;48.506;9.050;2022-08-19T03:22:00;21.00;99.90
13488;DHT22;6816;48.506;9.050;2022-08-19T03:25:01;21.00;99.90
13488;DHT22;6816;48.506;9.050;2022-08-19T03:28:01;21.00;99.90
13488;DHT22;6816;48.506;9.050;2022-08-19T03:31:05;21.00;99.90
13488;DHT22;6816;48.506;9.050;2022-08-19T03:34:07;20.90;99.90
13488;DHT22;6816;48.506;9.050;2022-08-19T03:37:10;21.00;99.90
13488;DHT22;6816;48.506;9.050;2022-08-19T03:40:12;20.90;99.90
13488;DHT22;6816;48.506;9.050;2022-08-19T03:43:13;21.00;99.90
13488;DHT22;6816;48.506;9.050;2022-08-19T03:46:29;20.90;99.90
13488;DHT22;6816;48.506;9.050;2022-08-19T03:49:31;21.00;99.90
13488;DHT22;6816;48.506;9.050;2022-08-19T03:52:33;20.90;99.90
13488;DHT22;6816;48.506;9.050;2022-08-19T03:55:40;20.90;99.90
13488;DHT22;6816;48.506;9.050;2022-08-19T03:58:42;20.90;99.90
13488;DHT22;6816;48.506;9.050;2022-08-19T04:01:43;20.90;99.90
13488;DHT22;6816;48.506;9.050;2022-08-19T04:04:44;20.90;99.90
13488;DHT22;6816;48.506;9.050;2022-08-19T04:07:44;20.90;99.90
13488;DHT22;6816;48.506;9.050;2022-08-19T04:10:46;20.90;99.90
13488;DHT22;6816;48.506;9.050;2022-08-19T04:13:48;20.90;99.90
13488;DHT22;6816;48.506;9.050;2022-08-19T04:16:50;20.90;99.90
13488;DHT22;6816;48.506;9.050;2022-08-19T04:19:51;20.90;99.90
13488;DHT22;6816;48.506;9.050;2022-08-19T04:22:51;20.90;99.90
13488;DHT22;6816;48.506;9.050;2022-08-19T04:25:52;20.90;99.90
13488;DHT22;6816;48.506;9.050;2022-08-19T04:28:53;20.90;99.90
13488;DHT22;6816;48.506;9.050;2022-08-19T04:31:56;20.90;99.90
13488;DHT22;6816;48.506;9.050;2022-08-19T04:34:56;20.80;99.90
13488;DHT22;6816;48.506;9.050;2022-08-19T04:37:59;20.80;99.90
13488;DHT22;6816;48.506;9.050;2022-08-19T04:40:59;20.80;99.90
13488;DHT22;6816;48.506;9.050;2022-08-19T04:44:19;20.80;99.90
13488;DHT22;6816;48.506;9.050;2022-08-19T04:47:19;20.80;99.90
13488;DHT22;6816;48.506;9.050;2022-08-19T04:50:20;20.80;99.90
13488;DHT22;6816;48.506;9.050;2022-08-19T04:53:27;20.80;99.90
13488;DHT22;6816;48.506;9.050;2022-08-19T04:56:29;20.80;99.90
13488;DHT22;6816;48.506;9.050;2022-08-19T04:59:29;20.80;99.90
13488;DHT22;6816;48.506;9.050;2022-08-19T05:02:30;20.80;99.90
13488;DHT22;6816;48.506;9.050;2022-08-19T05:05:30;20.80;99.90
13488;DHT22;6816;48.506;9.050;2022-08-19T05:08:31;20.90;99.90
13488;DHT22;6816;48.506;9.050;2022-08-19T05:11:34;20.90;99.90
13488;DHT22;6816;48.506;9.050;2022-08-19T05:14:35;20.90;99.90
13488;DHT22;6816;48.506;9.050;2022-08-19T05:17:36;20.90;99.90
13488;DHT22;6816;48.506;9.050;2022-08-19T05:20:38;20.90;99.90
13488;DHT22;6816;48.506;9.050;2022-08-19T05:23:57;20.90;99.90
13488;DHT22;6816;48.506;9.050;2022-08-19T05:26:58;20.90;99.90
13488;DHT22;6816;48.506;9.050;2022-08-19T05:29:59;20.90;99.90
13488;DHT22;6816;48.506;9.050;2022-08-19T05:33:00;21.00;99.90
13488;DHT22;6816;48.506;9.050;2022-08-19T05:36:01;21.00;99.90
13488;DHT22;6816;48.506;9.050;2022-08-19T05:39:03;21.00;99.90
13488;DHT22;6816;48.506;9.050;2022-08-19T05:42:09;21.00;99.90
13488;DHT22;6816;48.506;9.050;2022-08-19T05:45:10;21.00;99.90
13488;DHT22;6816;48.506;9.050;2022-08-19T05:48:12;21.00;99.90
13488;DHT22;6816;48.506;9.050;2022-08-19T05:51:13;21.10;99.90
13488;DHT22;6816;48.506;9.050;2022-08-19T05:54:13;20.90;99.90
13488;DHT22;6816;48.506;9.050;2022-08-19T05:57:14;21.10;99.90
13488;DHT22;6816;48.506;9.050;2022-08-19T06:00:15;21.10;99.90
13488;DHT22;6816;48.506;9.050;2022-08-19T06:03:16;21.10;99.90
13488;DHT22;6816;48.506;9.050;2022-08-19T06:06:18;21.20;99.90
13488;DHT22;6816;48.506;9.050;2022-08-19T06:09:20;21.20;99.90
13488;DHT22;6816;48.506;9.050;2022-08-19T06:12:21;21.20;99.90
13488;DHT22;6816;48.506;9.050;2022-08-19T06:15:30;21.20;99.90
13488;DHT22;6816;48.506;9.050;2022-08-19T06:18:31;21.20;99.90
13488;DHT22;6816;48.506;9.050;2022-08-19T06:21:35;21.30;99.90
13488;DHT22;6816;48.506;9.050;2022-08-19T06:24:37;21.30;99.90
13488;DHT22;6816;48.506;9.050;2022-08-19T06:27:38;21.30;99.90
13488;DHT22;6816;48.506;9.050;2022-08-19T06:30:39;21.30;99.90
13488;DHT22;6816;48.506;9.050;2022-08-19T06:33:40;21.30;99.90
13488;DHT22;6816;48.506;9.050;2022-08-19T06:36:45;21.40;99.90
13488;DHT22;6816;48.506;9.050;2022-08-19T06:39:46;21.40;99.90
13488;DHT22;6816;48.506;9.050;2022-08-19T06:42:46;21.40;99.90
13488;DHT22;6816;48.506;9.050;2022-08-19T06:45:47;21.40;99.90
13488;DHT22;6816;48.506;9.050;2022-08-19T06:48:48;21.50;99.90
13488;DHT22;6816;48.506;9.050;2022-08-19T06:51:50;21.30;99.90
13488;DHT22;6816;48.506;9.050;2022-08-19T06:54:50;21.50;99.90
13488;DHT22;6816;48.506;9.050;2022-08-19T06:57:51;21.60;99.90
13488;DHT22;6816;48.506;9.050;2022-08-19T07:00:53;21.60;99.90
13488;DHT22;6816;48.506;9.050;2022-08-19T07:03:54;21.60;99.90
13488;DHT22;6816;48.506;9.050;2022-08-19T07:07:06;21.60;99.90
13488;DHT22;6816;48.506;9.050;2022-08-19T07:10:08;21.70;99.90
13488;DHT22;6816;48.506;9.050;2022-08-19T07:13:10;21.70;99.90
13488;DHT22;6816;48.506;9.050;2022-08-19T07:16:14;21.70;99.90
13488;DHT22;6816;48.506;9.050;2022-08-19T07:19:16;21.70;99.90
13488;DHT22;6816;48.506;9.050;2022-08-19T07:22:17;21.80;99.90
13488;DHT22;6816;48.506;9.050;2022-08-19T07:25:18;21.80;99.90
13488;DHT22;6816;48.506;9.050;2022-08-19T07:28:21;21.80;99.90
13488;DHT22;6816;48.506;9.050;2022-08-19T07:31:24;21.90;99.90
13488;DHT22;6816;48.506;9.050;2022-08-19T07:34:26;21.90;99.90
13488;DHT22;6816;48.506;9.050;2022-08-19T07:37:27;21.90;99.90
13488;DHT22;6816;48.506;9.050;2022-08-19T07:40:29;21.90;99.90
13488;DHT22;6816;48.506;9.050;2022-08-19T07:43:29;21.90;99.90
13488;DHT22;6816;48.506;9.050;2022-08-19T07:46:31;22.00;99.90
13488;DHT22;6816;48.506;9.050;2022-08-19T07:49:32;22.00;99.90
13488;DHT22;6816;48.506;9.050;2022-08-19T07:52:33;22.00;99.90
13488;DHT22;6816;48.506;9.050;2022-08-19T07:55:34;22.00;99.90
13488;DHT22;6816;48.506;9.050;2022-08-19T07:58:40;22.00;99.90
13488;DHT22;6816;48.506;9.050;2022-08-19T08:01:41;22.10;99.90
13488;DHT22;6816;48.506;9.050;2022-08-19T08:04:42;22.10;99.90
13488;DHT22;6816;48.506;9.050;2022-08-19T08:08:01;22.20;99.90
13488;DHT22;6816;48.506;9.050;2022-08-19T08:11:21;22.20;99.90
13488;DHT22;6816;48.506;9.050;2022-08-19T08:14:25;22.20;99.90
13488;DHT22;6816;48.506;9.050;2022-08-19T08:17:28;22.20;99.90
13488;DHT22;6816;48.506;9.050;2022-08-19T08:20:29;22.20;99.90
13488;DHT22;6816;48.506;9.050;2022-08-19T08:23:30;22.20;99.90
13488;DHT22;6816;48.506;9.050;2022-08-19T08:26:31;22.20;99.90
13488;DHT22;6816;48.506;9.050;2022-08-19T08:29:32;22.20;99.90
13488;DHT22;6816;48.506;9.050;2022-08-19T08:32:34;22.20;99.90
13488;DHT22;6816;48.506;9.050;2022-08-19T08:35:35;22.20;99.90
13488;DHT22;6816;48.506;9.050;2022-08-19T08:38:36;22.20;99.90
13488;DHT22;6816;48.506;9.050;2022-08-19T08:42:07;22.20;99.90
13488;DHT22;6816;48.506;9.050;2022-08-19T08:45:14;22.20;99.90
13488;DHT22;6816;48.506;9.050;2022-08-19T08:48:32;22.20;99.90
13488;DHT22;6816;48.506;9.050;2022-08-19T08:51:42;22.20;99.90
13488;DHT22;6816;48.506;9.050;2022-08-19T08:54:46;22.10;99.90
13488;DHT22;6816;48.506;9.050;2022-08-19T09:00:49;22.10;99.90
13488;DHT22;6816;48.506;9.050;2022-08-19T09:03:50;22.10;99.90
13488;DHT22;6816;48.506;9.050;2022-08-19T09:07:08;22.10;99.90
13488;DHT22;6816;48.506;9.050;2022-08-19T09:16:49;22.00;99.90
13488;DHT22;6816;48.506;9.050;2022-08-19T09:19:57;22.00;99.90
13488;DHT22;6816;48.506;9.050;2022-08-19T09:22:58;22.00;99.90
13488;DHT22;6816;48.506;9.050;2022-08-19T09:25:59;21.90;99.90
13488;DHT22;6816;48.506;9.050;2022-08-19T09:29:00;21.90;99.90
13488;DHT22;6816;48.506;9.050;2022-08-19T09:32:02;21.90;99.90
13488;DHT22;6816;48.506;9.050;2022-08-19T09:35:03;21.90;99.90
13488;DHT22;6816;48.506;9.050;2022-08-19T09:38:03;21.90;99.90
13488;DHT22;6816;48.506;9.050;2022-08-19T09:41:09;21.90;99.90
13488;DHT22;6816;48.506;9.050;2022-08-19T09:44:13;21.90;99.90
13488;DHT22;6816;48.506;9.050;2022-08-19T09:47:13;21.90;99.90
13488;DHT22;6816;48.506;9.050;2022-08-19T09:50:14;21.90;99.90
13488;DHT22;6816;48.506;9.050;2022-08-19T09:53:15;21.80;99.90
13488;DHT22;6816;48.506;9.050;2022-08-19T09:56:17;21.80;99.90
13488;DHT22;6816;48.506;9.050;2022-08-19T09:59:18;21.80;99.90
13488;DHT22;6816;48.506;9.050;2022-08-19T10:02:19;21.80;99.90
13488;DHT22;6816;48.506;9.050;2022-08-19T10:05:19;21.80;99.90
13488;DHT22;6816;48.506;9.050;2022-08-19T10:08:38;21.80;99.90
13488;DHT22;6816;48.506;9.050;2022-08-19T10:11:41;21.80;99.90
13488;DHT22;6816;48.506;9.050;2022-08-19T10:14:42;21.80;99.90
13488;DHT22;6816;48.506;9.050;2022-08-19T10:17:42;21.90;99.90
13488;DHT22;6816;48.506;9.050;2022-08-19T10:20:44;21.80;99.90
13488;DHT22;6816;48.506;9.050;2022-08-19T10:23:48;21.90;99.90
13488;DHT22;6816;48.506;9.050;2022-08-19T10:26:48;21.90;99.90
13488;DHT22;6816;48.506;9.050;2022-08-19T10:29:49;21.90;99.90
13488;DHT22;6816;48.506;9.050;2022-08-19T10:32:50;21.90;99.90
13488;DHT22;6816;48.506;9.050;2022-08-19T10:35:59;21.90;99.90
13488;DHT22;6816;48.506;9.050;2022-08-19T10:39:08;21.90;99.90
13488;DHT22;6816;48.506;9.050;2022-08-19T10:42:10;21.90;99.90
13488;DHT22;6816;48.506;9.050;2022-08-19T10:45:13;21.90;99.90
13488;DHT22;6816;48.506;9.050;2022-08-19T10:48:14;21.90;99.90
13488;DHT22;6816;48.506;9.050;2022-08-19T10:51:15;21.90;99.90
13488;DHT22;6816;48.506;9.050;2022-08-19T10:54:35;22.00;99.90
13488;DHT22;6816;48.506;9.050;2022-08-19T10:57:54;22.00;99.90
13488;DHT22;6816;48.506;9.050;2022-08-19T11:00:58;22.00;99.90
13488;DHT22;6816;48.506;9.050;2022-08-19T11:04:00;22.00;99.90
13488;DHT22;6816;48.506;9.050;2022-08-19T11:07:01;22.00;99.90
13488;DHT22;6816;48.506;9.050;2022-08-19T11:10:04;22.10;99.90
13488;DHT22;6816;48.506;9.050;2022-08-19T11:13:05;22.10;99.90
13488;DHT22;6816;48.506;9.050;2022-08-19T11:16:11;22.10;99.90
13488;DHT22;6816;48.506;9.050;2022-08-19T11:19:14;22.10;99.90
13488;DHT22;6816;48.506;9.050;2022-08-19T11:22:17;22.20;99.90
13488;DHT22;6816;48.506;9.050;2022-08-19T11:25:17;22.20;99.90
13488;DHT22;6816;48.506;9.050;2022-08-19T11:28:18;22.20;99.90
13488;DHT22;6816;48.506;9.050;2022-08-19T11:31:20;22.20;99.90
13488;DHT22;6816;48.506;9.050;2022-08-19T11:34:24;22.20;99.90
13488;DHT22;6816;48.506;9.050;2022-08-19T11:37:25;22.30;99.90
13488;DHT22;6816;48.506;9.050;2022-08-19T11:40:26;22.30;99.90
13488;DHT22;6816;48.506;9.050;2022-08-19T11:43:28;22.30;99.90
13488;DHT22;6816;48.506;9.050;2022-08-19T11:46:29;22.30;99.90
13488;DHT22;6816;48.506;9.050;2022-08-19T11:49:29;22.40;99.90
13488;DHT22;6816;48.506;9.050;2022-08-19T11:52:30;22.40;99.90
13488;DHT22;6816;48.506;9.050;2022-08-19T11:55:31;22.40;99.90
13488;DHT22;6816;48.506;9.050;2022-08-19T11:58:32;22.40;99.90
13488;DHT22;6816;48.506;9.050;2022-08-19T12:01:33;22.40;99.90
13488;DHT22;6816;48.506;9.050;2022-08-19T12:04:34;22.50;99.90
13488;DHT22;6816;48.506;9.050;2022-08-19T12:07:35;22.50;99.90
13488;DHT22;6816;48.506;9.050;2022-08-19T12:10:36;22.50;99.90
13488;DHT22;6816;48.506;9.050;2022-08-19T12:13:37;22.50;99.90
13488;DHT22;6816;48.506;9.050;2022-08-19T12:16:39;22.50;99.90
13488;DHT22;6816;48.506;9.050;2022-08-19T12:19:40;22.40;99.90
13488;DHT22;6816;48.506;9.050;2022-08-19T12:22:42;22.40;99.90
13488;DHT22;6816;48.506;9.050;2022-08-19T12:25:48;22.40;99.90
13488;DHT22;6816;48.506;9.050;2022-08-19T12:28:52;22.40;99.90
13488;DHT22;6816;48.506;9.050;2022-08-19T12:31:53;22.40;99.90
13488;DHT22;6816;48.506;9.050;2022-08-19T12:34:54;22.30;99.90
13488;DHT22;6816;48.506;9.050;2022-08-19T12:37:54;22.30;99.90
13488;DHT22;6816;48.506;9.050;2022-08-19T12:40:55;22.30;99.90
13488;DHT22;6816;48.506;9.050;2022-08-19T12:43:56;22.30;99.90
13488;DHT22;6816;48.506;9.050;2022-08-19T12:46:57;22.30;99.90
13488;DHT22;6816;48.506;9.050;2022-08-19T12:49:58;22.30;99.90
13488;DHT22;6816;48.506;9.050;2022-08-19T12:52:59;22.20;99.90
13488;DHT22;6816;48.506;9.050;2022-08-19T12:56:00;22.20;99.90
13488;DHT22;6816;48.506;9.050;2022-08-19T12:59:02;22.20;99.90
13488;DHT22;6816;48.506;9.050;2022-08-19T13:02:04;22.20;99.90
13488;DHT22;6816;48.506;9.050;2022-08-19T13:05:08;22.20;99.90
13488;DHT22;6816;48.506;9.050;2022-08-19T13:08:10;22.20;99.90
13488;DHT22;6816;48.506;9.050;2022-08-19T13:11:16;22.20;99.90
13488;DHT22;6816;48.506;9.050;2022-08-19T13:14:17;22.30;99.90
13488;DHT22;6816;48.506;9.050;2022-08-19T13:17:20;22.20;99.90
13488;DHT22;6816;48.506;9.050;2022-08-19T13:20:22;22.20;99.90
13488;DHT22;6816;48.506;9.050;2022-08-19T13:23:22;22.20;99.90
13488;DHT22;6816;48.506;9.050;2022-08-19T13:26:23;22.20;99.90
13488;DHT22;6816;48.506;9.050;2022-08-19T13:29:24;22.20;99.90
13488;DHT22;6816;48.506;9.050;2022-08-19T13:32:43;22.20;99.90
13488;DHT22;6816;48.506;9.050;2022-08-19T13:36:02;22.20;99.90
13488;DHT22;6816;48.506;9.050;2022-08-19T13:39:07;22.20;99.90
13488;DHT22;6816;48.506;9.050;2022-08-19T13:42:09;22.20;99.90
13488;DHT22;6816;48.506;9.050;2022-08-19T13:45:11;22.20;99.90
13488;DHT22;6816;48.506;9.050;2022-08-19T13:48:11;22.20;99.90
13488;DHT22;6816;48.506;9.050;2022-08-19T13:51:12;22.20;99.90
13488;DHT22;6816;48.506;9.050;2022-08-19T13:54:13;22.20;99.90
13488;DHT22;6816;48.506;9.050;2022-08-19T13:57:14;22.20;99.90
13488;DHT22;6816;48.506;9.050;2022-08-19T14:00:16;22.20;99.90
13488;DHT22;6816;48.506;9.050;2022-08-19T14:03:18;22.20;99.90
13488;DHT22;6816;48.506;9.050;2022-08-19T14:06:19;22.20;99.90
13488;DHT22;6816;48.506;9.050;2022-08-19T14:09:21;22.20;99.90
13488;DHT22;6816;48.506;9.050;2022-08-19T14:12:22;22.20;99.90
13488;DHT22;6816;48.506;9.050;2022-08-19T14:15:23;22.20;99.90
13488;DHT22;6816;48.506;9.050;2022-08-19T14:18:24;22.20;99.90
13488;DHT22;6816;48.506;9.050;2022-08-19T14:21:25;22.30;99.90
13488;DHT22;6816;48.506;9.050;2022-08-19T14:24:26;22.30;99.90
13488;DHT22;6816;48.506;9.050;2022-08-19T14:27:27;22.40;99.90
13488;DHT22;6816;48.506;9.050;2022-08-19T14:30:31;22.40;99.90
13488;DHT22;6816;48.506;9.050;2022-08-19T14:33:33;22.40;99.90
13488;DHT22;6816;48.506;9.050;2022-08-19T14:36:33;22.40;99.90
13488;DHT22;6816;48.506;9.050;2022-08-19T14:39:34;22.40;99.90
13488;DHT22;6816;48.506;9.050;2022-08-19T14:42:35;22.40;99.90
13488;DHT22;6816;48.506;9.050;2022-08-19T14:45:37;22.50;99.90
13488;DHT22;6816;48.506;9.050;2022-08-19T14:48:38;22.50;99.90
13488;DHT22;6816;48.506;9.050;2022-08-19T14:51:39;22.60;99.90
13488;DHT22;6816;48.506;9.050;2022-08-19T14:54:40;22.70;99.90
13488;DHT22;6816;48.506;9.050;2022-08-19T14:57:41;22.70;99.90
13488;DHT22;6816;48.506;9.050;2022-08-19T15:00:42;22.80;99.90
13488;DHT22;6816;48.506;9.050;2022-08-19T15:03:43;22.80;99.90
13488;DHT22;6816;48.506;9.050;2022-08-19T15:06:43;22.80;99.90
13488;DHT22;6816;48.506;9.050;2022-08-19T15:09:44;22.80;99.90
13488;DHT22;6816;48.506;9.050;2022-08-19T15:12:45;22.70;99.90
13488;DHT22;6816;48.506;9.050;2022-08-19T15:15:46;22.70;99.90
13488;DHT22;6816;48.506;9.050;2022-08-19T15:18:50;22.80;99.90
13488;DHT22;6816;48.506;9.050;2022-08-19T15:21:51;22.70;99.90
13488;DHT22;6816;48.506;9.050;2022-08-19T15:24:54;22.70;99.90
13488;DHT22;6816;48.506;9.050;2022-08-19T15:27:56;22.80;99.90
13488;DHT22;6816;48.506;9.050;2022-08-19T15:30:57;22.70;99.90
13488;DHT22;6816;48.506;9.050;2022-08-19T15:33:57;22.80;99.90
13488;DHT22;6816;48.506;9.050;2022-08-19T15:36:58;22.80;99.90
13488;DHT22;6816;48.506;9.050;2022-08-19T15:39:59;22.80;99.90
13488;DHT22;6816;48.506;9.050;2022-08-19T15:43:00;22.80;99.90
13488;DHT22;6816;48.506;9.050;2022-08-19T15:46:00;22.90;99.90
13488;DHT22;6816;48.506;9.050;2022-08-19T15:49:01;22.80;99.90
13488;DHT22;6816;48.506;9.050;2022-08-19T15:52:02;22.90;99.90
13488;DHT22;6816;48.506;9.050;2022-08-19T15:55:05;22.90;99.90
13488;DHT22;6816;48.506;9.050;2022-08-19T15:58:09;22.90;99.90
13488;DHT22;6816;48.506;9.050;2022-08-19T16:01:28;22.90;99.90
13488;DHT22;6816;48.506;9.050;2022-08-19T16:04:48;22.90;99.90
13488;DHT22;6816;48.506;9.050;2022-08-19T16:08:07;23.00;99.90
13488;DHT22;6816;48.506;9.050;2022-08-19T16:11:12;23.00;99.90
13488;DHT22;6816;48.506;9.050;2022-08-19T16:14:18;23.10;99.90
13488;DHT22;6816;48.506;9.050;2022-08-19T16:17:19;23.10;99.90
13488;DHT22;6816;48.506;9.050;2022-08-19T16:20:19;23.20;99.90
13488;DHT22;6816;48.506;9.050;2022-08-19T16:23:21;23.30;99.90
13488;DHT22;6816;48.506;9.050;2022-08-19T16:26:22;23.40;99.90
13488;DHT22;6816;48.506;9.050;2022-08-19T16:29:23;23.40;99.90
13488;DHT22;6816;48.506;9.050;2022-08-19T16:32:24;23.40;99.90
13488;DHT22;6816;48.506;9.050;2022-08-19T16:35:25;23.50;99.90
13488;DHT22;6816;48.506;9.050;2022-08-19T16:38:26;23.50;99.90
13488;DHT22;6816;48.506;9.050;2022-08-19T16:41:27;23.50;99.90
13488;DHT22;6816;48.506;9.050;2022-08-19T16:44:28;23.60;99.90
13488;DHT22;6816;48.506;9.050;2022-08-19T16:47:29;23.60;99.90
13488;DHT22;6816;48.506;9.050;2022-08-19T16:50:30;23.60;99.90
13488;DHT22;6816;48.506;9.050;2022-08-19T16:53:30;23.70;99.90
13488;DHT22;6816;48.506;9.050;2022-08-19T16:56:31;23.70;99.90
13488;DHT22;6816;48.506;9.050;2022-08-19T16:59:33;23.70;99.90
13488;DHT22;6816;48.506;9.050;2022-08-19T17:02:34;23.70;99.90
13488;DHT22;6816;48.506;9.050;2022-08-19T17:05:47;23.70;99.90
13488;DHT22;6816;48.506;9.050;2022-08-19T17:08:50;23.70;99.90
13488;DHT22;6816;48.506;9.050;2022-08-19T17:11:51;23.70;99.90
13488;DHT22;6816;48.506;9.050;2022-08-19T17:14:52;23.70;99.90
13488;DHT22;6816;48.506;9.050;2022-08-19T17:17:52;23.60;99.90
13488;DHT22;6816;48.506;9.050;2022-08-19T17:20:59;23.60;99.90
13488;DHT22;6816;48.506;9.050;2022-08-19T17:24:02;23.60;99.90
13488;DHT22;6816;48.506;9.050;2022-08-19T17:27:04;23.50;99.90
13488;DHT22;6816;48.506;9.050;2022-08-19T17:30:05;23.50;99.90
13488;DHT22;6816;48.506;9.050;2022-08-19T17:33:07;23.50;99.90
13488;DHT22;6816;48.506;9.050;2022-08-19T17:36:08;23.40;99.90
13488;DHT22;6816;48.506;9.050;2022-08-19T17:39:09;23.40;99.90
13488;DHT22;6816;48.506;9.050;2022-08-19T17:42:10;23.40;99.90
13488;DHT22;6816;48.506;9.050;2022-08-19T17:45:11;23.30;99.90
13488;DHT22;6816;48.506;9.050;2022-08-19T17:48:12;23.30;99.90
13488;DHT22;6816;48.506;9.050;2022-08-19T17:54:35;23.20;99.90
13488;DHT22;6816;48.506;9.050;2022-08-19T17:57:36;23.20;99.90
13488;DHT22;6816;48.506;9.050;2022-08-19T18:00:38;23.10;99.90
13488;DHT22;6816;48.506;9.050;2022-08-19T18:03:40;23.10;99.90
13488;DHT22;6816;48.506;9.050;2022-08-19T18:06:41;23.00;99.90
13488;DHT22;6816;48.506;9.050;2022-08-19T18:09:42;23.00;99.90
13488;DHT22;6816;48.506;9.050;2022-08-19T18:12:42;23.00;99.90
13488;DHT22;6816;48.506;9.050;2022-08-19T18:15:43;22.90;99.90
13488;DHT22;6816;48.506;9.050;2022-08-19T18:18:44;22.90;99.90
13488;DHT22;6816;48.506;9.050;2022-08-19T18:21:45;22.80;99.90
13488;DHT22;6816;48.506;9.050;2022-08-19T18:24:46;22.70;99.90
13488;DHT22;6816;48.506;9.050;2022-08-19T18:27:47;22.70;99.90
13488;DHT22;6816;48.506;9.050;2022-08-19T18:30:48;22.70;99.90
13488;DHT22;6816;48.506;9.050;2022-08-19T18:33:48;22.60;99.90
13488;DHT22;6816;48.506;9.050;2022-08-19T18:36:51;22.60;99.90
13488;DHT22;6816;48.506;9.050;2022-08-19T18:39:53;22.50;99.90
13488;DHT22;6816;48.506;9.050;2022-08-19T18:43:12;22.50;99.90
13488;DHT22;6816;48.506;9.050;2022-08-19T18:46:16;22.40;99.90
13488;DHT22;6816;48.506;9.050;2022-08-19T18:49:35;22.40;99.90
13488;DHT22;6816;48.506;9.050;2022-08-19T18:52:36;22.30;99.90
13488;DHT22;6816;48.506;9.050;2022-08-19T18:55:37;22.30;99.90
13488;DHT22;6816;48.506;9.050;2022-08-19T18:58:40;22.10;99.90
13488;DHT22;6816;48.506;9.050;2022-08-19T19:01:43;22.20;99.90
13488;DHT22;6816;48.506;9.050;2022-08-19T19:04:50;22.20;99.90
13488;DHT22;6816;48.506;9.050;2022-08-19T19:07:51;22.10;99.90
13488;DHT22;6816;48.506;9.050;2022-08-19T19:10:54;22.10;99.90
13488;DHT22;6816;48.506;9.050;2022-08-19T19:13:55;22.10;99.90
13488;DHT22;6816;48.506;9.050;2022-08-19T19:16:57;22.00;99.90
13488;DHT22;6816;48.506;9.050;2022-08-19T19:19:58;22.00;99.90
13488;DHT22;6816;48.506;9.050;2022-08-19T19:22:59;22.00;99.90
13488;DHT22;6816;48.506;9.050;2022-08-19T19:25:59;22.00;99.90
13488;DHT22;6816;48.506;9.050;2022-08-19T19:29:01;22.00;99.90
13488;DHT22;6816;48.506;9.050;2022-08-19T19:32:05;22.00;99.90
13488;DHT22;6816;48.506;9.050;2022-08-19T19:35:07;21.90;99.90
13488;DHT22;6816;48.506;9.050;2022-08-19T19:38:09;21.90;99.90
13488;DHT22;6816;48.506;9.050;2022-08-19T19:41:12;21.90;99.90
13488;DHT22;6816;48.506;9.050;2022-08-19T19:44:13;21.90;99.90
13488;DHT22;6816;48.506;9.050;2022-08-19T19:47:14;21.90;99.90